PWSweather.com
Personal Weather Stations
Station Observations
MAHIABEACH
Mahia Beach, Mahia Peninsula Hawkes Bay -NZ 4108

Mahia BeachMahia Peninsula Hawkes Bay -NZ 4108

Lat: -39.08872, Lon: 177.878209

Elevation: 72

Station Type: WS2083

http://wairoa.net/mahia/index.htm

Latest ConditionsUpdated 8:30:05 AM GMT+12:12 Saturday, May 7, 2016
Currently Today's Max Today's Min Today's Average
Temperature 60.1°F15.6°C 61.9°F16.6°C 57.2°F14.0°C 59.7°F15.4°C
Dew Point 59.2°F15.1°C 59.9°F15.5°C 56.1°F13.4°C 58.2°F14.6°C
Winds 2.0 mph WNW3.2 kmh WNW 3.8 mph NW6.1 kmh NW - 1.3 mph 2.1 kmh
Wind Gusts 5.4 mph8.7 kmh 7.6 mph12.2 kmh - -
Humidity 97% 97% 93% 95%
Pressure 30.25 in1024.4 mb 30.25 in1024.4 mb 30.21 in1023.0 mb -
Hour Temp Dew Point Humidity Winds Wind Gusts Pressure Precip Precip Rate Daily Precip Total
08:30 AM 60.1°F15.6°C 59.2°F15.1°C 97% 2.0 mph WNW3.2 kmh WNW 5.4 mph8.7 kmh 30.25 in1024.4 mb 0.00 in0.0 mm 0.00 in0.0 mm 0.00 in0.0 mm
08:15 AM 59.7°F15.4°C 58.9°F14.9°C 97% 2.8 mph NW4.5 kmh NW 5.4 mph8.7 kmh 30.25 in1024.4 mb 0.00 in0.0 mm 0.00 in0.0 mm 0.00 in0.0 mm
08:00 AM 59.4°F15.2°C 58.2°F14.6°C 96% 1.8 mph NW2.9 kmh NW 4.5 mph7.2 kmh 30.24 in1024.0 mb 0.00 in0.0 mm 0.00 in0.0 mm 0.00 in0.0 mm
07:45 AM 59.2°F15.1°C 58.1°F14.5°C 96% 1.5 mph NW2.4 kmh NW 3.8 mph6.1 kmh 30.23 in1023.7 mb 0.00 in0.0 mm 0.00 in0.0 mm 0.00 in0.0 mm
07:30 AM 59.0°F15.0°C 57.9°F14.4°C 96% 2.2 mph NW3.5 kmh NW 6.0 mph9.7 kmh 30.23 in1023.7 mb 0.00 in0.0 mm 0.00 in0.0 mm 0.00 in0.0 mm
07:15 AM 58.8°F14.9°C 58.0°F14.4°C 97% 3.8 mph NW6.1 kmh NW 7.6 mph12.2 kmh 30.22 in1023.4 mb 0.00 in0.0 mm 0.00 in0.0 mm 0.00 in0.0 mm
07:00 AM 58.3°F14.6°C 57.4°F14.1°C 97% 1.9 mph NNW3.1 kmh NNW 5.4 mph8.7 kmh 30.22 in1023.4 mb 0.00 in0.0 mm 0.00 in0.0 mm 0.00 in0.0 mm
06:45 AM 58.1°F14.5°C 57.0°F13.9°C 96% 1.7 mph NW2.7 kmh NW 4.5 mph7.2 kmh 30.22 in1023.4 mb 0.00 in0.0 mm 0.00 in0.0 mm 0.00 in0.0 mm
06:30 AM 57.2°F14.0°C 56.1°F13.4°C 96% 0.1 mph WNW0.2 kmh WNW 1.6 mph2.6 kmh 30.22 in1023.4 mb 0.00 in0.0 mm 0.00 in0.0 mm 0.00 in0.0 mm
06:15 AM 57.6°F14.2°C 56.4°F13.6°C 96% 0.3 mph NW0.5 kmh NW 2.2 mph3.5 kmh 30.21 in1023.0 mb 0.00 in0.0 mm 0.00 in0.0 mm 0.00 in0.0 mm
06:00 AM 57.6°F14.2°C 56.4°F13.6°C 96% 0.6 mph NW1.0 kmh NW 3.8 mph6.1 kmh 30.22 in1023.4 mb 0.00 in0.0 mm 0.00 in0.0 mm 0.00 in0.0 mm
05:45 AM 58.1°F14.5°C 57.0°F13.9°C 96% 0.8 mph N1.3 kmh N 3.8 mph6.1 kmh 30.21 in1023.0 mb 0.00 in0.0 mm 0.00 in0.0 mm 0.00 in0.0 mm
05:30 AM 58.5°F14.7°C 57.3°F14.1°C 96% 0.8 mph NW1.3 kmh NW 3.1 mph5.0 kmh 30.21 in1023.0 mb 0.00 in0.0 mm 0.00 in0.0 mm 0.00 in0.0 mm
05:15 AM 58.5°F14.7°C 57.3°F14.1°C 96% 0.2 mph WNW0.3 kmh WNW 1.6 mph2.6 kmh 30.21 in1023.0 mb 0.00 in0.0 mm 0.00 in0.0 mm 0.00 in0.0 mm
05:00 AM 58.5°F14.7°C 57.3°F14.1°C 96% 0.8 mph W1.3 kmh W 2.2 mph3.5 kmh 30.21 in1023.0 mb 0.00 in0.0 mm 0.00 in0.0 mm 0.00 in0.0 mm
04:45 AM 58.6°F14.8°C 57.2°F14.0°C 95% 1.1 mph WNW1.8 kmh WNW 3.1 mph5.0 kmh 30.22 in1023.4 mb 0.00 in0.0 mm 0.00 in0.0 mm 0.00 in0.0 mm
04:30 AM 58.6°F14.8°C 57.2°F14.0°C 95% 0.3 mph WNW0.5 kmh WNW 2.2 mph3.5 kmh 30.21 in1023.0 mb 0.00 in0.0 mm 0.00 in0.0 mm 0.00 in0.0 mm
04:15 AM 59.2°F15.1°C 57.5°F14.2°C 94% 1.8 mph NW2.9 kmh NW 3.8 mph6.1 kmh 30.21 in1023.0 mb 0.00 in0.0 mm 0.00 in0.0 mm 0.00 in0.0 mm
04:00 AM 59.5°F15.3°C 57.8°F14.3°C 94% 1.3 mph NW2.1 kmh NW 3.1 mph5.0 kmh 30.21 in1023.0 mb 0.00 in0.0 mm 0.00 in0.0 mm 0.00 in0.0 mm
03:45 AM 59.7°F15.4°C 58.0°F14.4°C 94% 0.5 mph NE0.8 kmh NE 2.2 mph3.5 kmh 30.21 in1023.0 mb 0.00 in0.0 mm 0.00 in0.0 mm 0.00 in0.0 mm
03:30 AM 59.7°F15.4°C 58.0°F14.4°C 94% Calm Calm 0.7 mph1.1 kmh 30.21 in1023.0 mb 0.00 in0.0 mm 0.00 in0.0 mm 0.00 in0.0 mm
03:15 AM 60.1°F15.6°C 58.4°F14.7°C 94% 0.3 mph SW0.5 kmh SW 3.1 mph5.0 kmh 30.21 in1023.0 mb 0.00 in0.0 mm 0.00 in0.0 mm 0.00 in0.0 mm
03:00 AM 60.3°F15.7°C 58.5°F14.7°C 94% 0.2 mph SW0.3 kmh SW 1.6 mph2.6 kmh 30.21 in1023.0 mb 0.00 in0.0 mm 0.00 in0.0 mm 0.00 in0.0 mm
02:45 AM 60.6°F15.9°C 58.9°F14.9°C 94% 0.6 mph E1.0 kmh E 3.1 mph5.0 kmh 30.21 in1023.0 mb 0.00 in0.0 mm 0.00 in0.0 mm 0.00 in0.0 mm
02:30 AM 60.8°F16.0°C 58.8°F14.9°C 93% 1.5 mph NE2.4 kmh NE 3.8 mph6.1 kmh 30.21 in1023.0 mb 0.00 in0.0 mm 0.00 in0.0 mm 0.00 in0.0 mm
02:15 AM 60.8°F16.0°C 58.8°F14.9°C 93% 1.8 mph E2.9 kmh E 3.8 mph6.1 kmh 30.21 in1023.0 mb 0.00 in0.0 mm 0.00 in0.0 mm 0.00 in0.0 mm
02:00 AM 61.2°F16.2°C 59.4°F15.2°C 94% 1.1 mph SE1.8 kmh SE 3.1 mph5.0 kmh 30.21 in1023.0 mb 0.00 in0.0 mm 0.00 in0.0 mm 0.00 in0.0 mm
01:45 AM 61.2°F16.2°C 59.1°F15.1°C 93% 1.5 mph ESE2.4 kmh ESE 3.8 mph6.1 kmh 30.21 in1023.0 mb 0.00 in0.0 mm 0.00 in0.0 mm 0.00 in0.0 mm
01:30 AM 61.3°F16.3°C 59.3°F15.2°C 93% 1.5 mph SE2.4 kmh SE 3.8 mph6.1 kmh 30.21 in1023.0 mb 0.00 in0.0 mm 0.00 in0.0 mm 0.00 in0.0 mm
01:15 AM 61.3°F16.3°C 59.3°F15.2°C 93% 1.1 mph SE1.8 kmh SE 4.5 mph7.2 kmh 30.22 in1023.4 mb 0.00 in0.0 mm 0.00 in0.0 mm 0.00 in0.0 mm
01:00 AM 61.5°F16.4°C 59.5°F15.3°C 93% 1.3 mph SE2.1 kmh SE 4.5 mph7.2 kmh 30.22 in1023.4 mb 0.00 in0.0 mm 0.00 in0.0 mm 0.00 in0.0 mm
12:45 AM 61.5°F16.4°C 59.5°F15.3°C 93% 2.9 mph SSE4.7 kmh SSE 5.4 mph8.7 kmh 30.22 in1023.4 mb 0.00 in0.0 mm 0.00 in0.0 mm 0.00 in0.0 mm
12:30 AM 61.5°F16.4°C 59.5°F15.3°C 93% 3.5 mph SE5.6 kmh SE 5.4 mph8.7 kmh 30.22 in1023.4 mb 0.00 in0.0 mm 0.00 in0.0 mm 0.00 in0.0 mm
12:15 AM 61.7°F16.5°C 59.7°F15.4°C 93% 0.7 mph ESE1.1 kmh ESE 5.4 mph8.7 kmh 30.22 in1023.4 mb 0.00 in0.0 mm 0.00 in0.0 mm 0.00 in0.0 mm
12:00 AM 61.9°F16.6°C 59.9°F15.5°C 93% 1.4 mph SSE2.3 kmh SSE 3.8 mph6.1 kmh 30.22 in1023.4 mb 0.00 in0.0 mm 0.00 in0.0 mm 0.00 in0.0 mm